Time;durP1;ratioP1;P1;durP2;ratioP2;P2;SDS_P1;SDS_P2;PMS_P1;PMS_P2;Temp;Humidity;BMP_temperature;BMP_pressure;BME280_temperature;BME280_humidity;BME280_pressure;Samples;Min_cycle;Max_cycle;Signal;HPM_P1;HPM_P2
2023/04/18 00:02:07;;;;;;;15.32;8.25;;;;;;;;;;6182980;23;20019;-83
2023/04/18 00:04:53;;;;;;;12.38;8.65;;;;;;;;;;6182357;23;20047;-84
2023/04/18 00:07:38;;;;;;;15.32;7.53;;;;;;;;;;6182471;23;20020;-83
2023/04/18 00:10:22;;;;;;;10.90;6.88;;;;;;;;;;6181779;23;20437;-83
2023/04/18 00:13:07;;;;;;;11.50;7.68;;;;;;;;;;6182935;23;20035;-83
2023/04/18 00:15:53;;;;;;;14.90;7.93;;;;;;;;;;6182071;23;20098;-83
2023/04/18 00:18:38;;;;;;;13.82;7.95;;;;;;;;;;6183506;23;20024;-83
2023/04/18 00:21:24;;;;;;;13.43;7.88;;;;;;;;;;6182641;23;20371;-83
2023/04/18 00:24:08;;;;;;;11.68;7.40;;;;;;;;;;6160904;23;20083;-83
2023/04/18 00:26:53;;;;;;;16.17;8.77;;;;;;;;;;6183457;23;20024;-83
2023/04/18 00:29:39;;;;;;;14.93;8.57;;;;;;;;;;6182120;23;20016;-82
2023/04/18 00:32:24;;;;;;;13.25;7.70;;;;;;;;;;6181734;23;20159;-83
2023/04/18 00:35:08;;;;;;;15.70;8.27;;;;;;;;;;6181279;23;20415;-84
2023/04/18 00:37:53;;;;;;;12.38;7.50;;;;;;;;;;6182011;23;20020;-83
2023/04/18 00:40:38;;;;;;;12.68;7.72;;;;;;;;;;6183472;23;20047;-82
2023/04/18 00:43:25;;;;;;;17.27;8.15;;;;;;;;;;6182703;23;20020;-82
2023/04/18 00:46:10;;;;;;;13.63;7.85;;;;;;;;;;6182699;23;20020;-83
2023/04/18 00:48:55;;;;;;;13.60;8.45;;;;;;;;;;6182002;23;20047;-83
2023/04/18 00:51:40;;;;;;;12.18;7.93;;;;;;;;;;6183271;23;20016;-83
2023/04/18 00:54:26;;;;;;;12.60;7.93;;;;;;;;;;6181537;23;20466;-84
2023/04/18 00:57:11;;;;;;;13.43;7.93;;;;;;;;;;6181295;23;20016;-83
2023/04/18 00:59:56;;;;;;;11.48;7.78;;;;;;;;;;6183330;23;20566;-83
2023/04/18 01:02:40;;;;;;;14.55;8.90;;;;;;;;;;6183384;23;20459;-82
2023/04/18 01:05:25;;;;;;;15.63;8.70;;;;;;;;;;6181161;23;20107;-83
2023/04/18 01:08:11;;;;;;;19.10;8.85;;;;;;;;;;6160558;23;20024;-83
2023/04/18 01:10:55;;;;;;;16.73;8.65;;;;;;;;;;6183131;23;20071;-83
2023/04/18 01:13:40;;;;;;;13.85;8.50;;;;;;;;;;6183229;23;20340;-83
2023/04/18 01:16:25;;;;;;;15.52;8.68;;;;;;;;;;6182672;23;20024;-83
2023/04/18 01:19:10;;;;;;;15.75;9.13;;;;;;;;;;6182738;23;20024;-87
2023/04/18 01:21:55;;;;;;;13.43;8.00;;;;;;;;;;6181816;23;20071;-83
2023/04/18 01:24:41;;;;;;;14.63;8.18;;;;;;;;;;6181921;23;20140;-84
2023/04/18 01:27:25;;;;;;;14.43;8.05;;;;;;;;;;6181438;23;20493;-84
2023/04/18 01:30:10;;;;;;;14.75;8.40;;;;;;;;;;6183904;23;20067;-85
2023/04/18 01:32:55;;;;;;;12.50;7.43;;;;;;;;;;6183673;23;20075;-83
2023/04/18 01:35:39;;;;;;;12.32;7.72;;;;;;;;;;6183730;23;20068;-84
2023/04/18 01:38:24;;;;;;;14.85;7.78;;;;;;;;;;6183117;23;20020;-84
2023/04/18 01:41:08;;;;;;;16.13;7.78;;;;;;;;;;6183764;23;20020;-84
2023/04/18 01:43:52;;;;;;;12.02;7.20;;;;;;;;;;6183720;23;20036;-85
2023/04/18 01:46:38;;;;;;;10.77;7.30;;;;;;;;;;6183127;23;20027;-85
2023/04/18 01:49:23;;;;;;;12.40;8.02;;;;;;;;;;6184358;23;20353;-84
2023/04/18 01:52:08;;;;;;;13.40;7.55;;;;;;;;;;6162570;23;20519;-84
2023/04/18 01:54:52;;;;;;;16.48;7.68;;;;;;;;;;6184806;23;20023;-84
2023/04/18 01:57:37;;;;;;;11.75;7.38;;;;;;;;;;6184300;23;20020;-84
2023/04/18 02:00:22;;;;;;;11.73;7.15;;;;;;;;;;6184060;23;20040;-83
2023/04/18 02:03:06;;;;;;;14.52;8.07;;;;;;;;;;6184842;23;20019;-84
2023/04/18 02:05:51;;;;;;;13.07;7.47;;;;;;;;;;6183484;23;20024;-83
2023/04/18 02:08:35;;;;;;;15.55;9.23;;;;;;;;;;6183898;23;20589;-84
2023/04/18 02:11:21;;;;;;;13.60;7.40;;;;;;;;;;6161917;23;20020;-84
2023/04/18 02:14:06;;;;;;;15.77;9.38;;;;;;;;;;6184725;23;20139;-84
2023/04/18 02:16:50;;;;;;;14.15;8.75;;;;;;;;;;6183596;23;20023;-83
2023/04/18 02:19:35;;;;;;;13.57;8.20;;;;;;;;;;6184157;23;20078;-84
2023/04/18 02:22:20;;;;;;;12.68;8.63;;;;;;;;;;6182496;23;20074;-84
2023/04/18 02:25:04;;;;;;;15.23;8.73;;;;;;;;;;6184546;23;20029;-84
2023/04/18 02:27:49;;;;;;;14.35;8.32;;;;;;;;;;6184632;23;20051;-84
2023/04/18 02:30:34;;;;;;;16.08;8.85;;;;;;;;;;6182913;23;20071;-83
2023/04/18 02:33:18;;;;;;;14.23;8.45;;;;;;;;;;6183094;23;20395;-86
2023/04/18 02:36:03;;;;;;;14.13;8.52;;;;;;;;;;6183172;23;20072;-83
2023/04/18 02:38:48;;;;;;;14.88;8.38;;;;;;;;;;6184357;23;20019;-84
2023/04/18 02:41:36;;;;;;;14.00;7.95;;;;;;;;;;6182626;23;20012;-83
2023/04/18 02:44:20;;;;;;;15.88;8.68;;;;;;;;;;6181941;23;20067;-87
2023/04/18 02:47:05;;;;;;;14.57;7.78;;;;;;;;;;6184468;23;20024;-84
2023/04/18 02:49:50;;;;;;;15.27;8.65;;;;;;;;;;6162239;23;20016;-85
2023/04/18 02:52:34;;;;;;;17.02;8.52;;;;;;;;;;6183821;23;20015;-84
2023/04/18 02:55:20;;;;;;;15.77;8.77;;;;;;;;;;6184366;23;20340;-83
2023/04/18 02:58:05;;;;;;;16.65;8.38;;;;;;;;;;6183025;23;20099;-84
2023/04/18 03:00:50;;;;;;;14.55;8.02;;;;;;;;;;6184420;23;20486;-83
2023/04/18 03:03:34;;;;;;;12.75;8.68;;;;;;;;;;6183845;23;20351;-83
2023/04/18 03:06:19;;;;;;;14.00;8.70;;;;;;;;;;6182720;23;20055;-84
2023/04/18 03:09:04;;;;;;;15.75;7.55;;;;;;;;;;6184332;23;20055;-84
2023/04/18 03:11:48;;;;;;;13.65;8.27;;;;;;;;;;6183877;23;20062;-84
2023/04/18 03:14:33;;;;;;;14.85;7.82;;;;;;;;;;6182380;23;20016;-84
2023/04/18 03:17:18;;;;;;;13.43;7.35;;;;;;;;;;6182865;23;20020;-84
2023/04/18 03:20:02;;;;;;;10.98;6.80;;;;;;;;;;6182881;23;20071;-85
2023/04/18 03:22:46;;;;;;;13.15;7.22;;;;;;;;;;6181663;23;20101;-84
2023/04/18 03:25:31;;;;;;;14.02;8.05;;;;;;;;;;6181976;23;20409;-85
2023/04/18 03:28:16;;;;;;;11.32;6.97;;;;;;;;;;6184019;23;20051;-84
2023/04/18 03:31:01;;;;;;;10.52;6.88;;;;;;;;;;6183968;23;20016;-83
2023/04/18 03:33:45;;;;;;;11.75;7.05;;;;;;;;;;6183208;23;20047;-81
2023/04/18 03:36:30;;;;;;;12.45;7.07;;;;;;;;;;6183258;23;20020;-81
2023/04/18 03:39:15;;;;;;;12.68;6.75;;;;;;;;;;6183917;23;20398;-81
2023/04/18 03:42:00;;;;;;;12.82;7.85;;;;;;;;;;6183734;23;20052;-81
2023/04/18 03:44:45;;;;;;;13.38;7.28;;;;;;;;;;6182180;23;20012;-81
2023/04/18 03:47:30;;;;;;;9.10;6.10;;;;;;;;;;6182004;23;20344;-85
2023/04/18 03:50:15;;;;;;;12.63;6.78;;;;;;;;;;6161511;23;20016;-81
2023/04/18 03:53:00;;;;;;;14.27;6.68;;;;;;;;;;6182442;23;20020;-80
2023/04/18 03:55:44;;;;;;;11.07;6.55;;;;;;;;;;6183029;23;20117;-81
2023/04/18 03:58:29;;;;;;;14.98;7.57;;;;;;;;;;6183688;23;20020;-85
2023/04/18 04:01:16;;;;;;;12.52;6.65;;;;;;;;;;6182270;23;20347;-82
2023/04/18 04:04:02;;;;;;;12.48;7.22;;;;;;;;;;6183675;23;20020;-81
2023/04/18 04:06:47;;;;;;;12.88;6.88;;;;;;;;;;6182989;23;20518;-81
2023/04/18 04:09:31;;;;;;;12.05;7.13;;;;;;;;;;6183273;23;20092;-85
2023/04/18 04:12:16;;;;;;;14.88;8.25;;;;;;;;;;6161610;23;20344;-82
2023/04/18 04:15:01;;;;;;;11.35;7.57;;;;;;;;;;6182292;23;20032;-82
2023/04/18 04:17:45;;;;;;;10.48;6.30;;;;;;;;;;6182929;23;20064;-82
2023/04/18 04:20:30;;;;;;;11.23;7.43;;;;;;;;;;6183554;23;20019;-82
2023/04/18 04:23:15;;;;;;;14.90;7.28;;;;;;;;;;6183220;23;20020;-81
2023/04/18 04:26:03;;;;;;;11.23;7.30;;;;;;;;;;6182060;23;20118;-81
2023/04/18 04:28:47;;;;;;;12.95;7.43;;;;;;;;;;6181522;23;20016;-81
2023/04/18 04:31:32;;;;;;;16.73;7.32;;;;;;;;;;6183225;23;20066;-81
2023/04/18 04:34:17;;;;;;;9.93;6.53;;;;;;;;;;6183428;23;20027;-81
2023/04/18 04:37:02;;;;;;;10.57;6.28;;;;;;;;;;6181987;23;20020;-81
2023/04/18 04:39:46;;;;;;;12.43;7.13;;;;;;;;;;6182969;23;20024;-81
2023/04/18 04:42:31;;;;;;;10.40;6.32;;;;;;;;;;6183391;23;20063;-83
2023/04/18 04:45:16;;;;;;;10.40;5.95;;;;;;;;;;6182025;23;20024;-81
2023/04/18 04:48:00;;;;;;;10.82;6.47;;;;;;;;;;6183151;23;20392;-82
2023/04/18 04:50:51;;;;;;;10.20;5.93;;;;;;;;;;6182660;23;20500;-81
2023/04/18 04:53:35;;;;;;;10.45;5.65;;;;;;;;;;6182180;23;20016;-82
2023/04/18 04:56:21;;;;;;;10.32;6.40;;;;;;;;;;6182895;23;20039;-82
2023/04/18 04:59:06;;;;;;;11.40;5.93;;;;;;;;;;6160875;23;20087;-81
2023/04/18 05:01:51;;;;;;;11.85;6.82;;;;;;;;;;6182402;23;20032;-81
2023/04/18 05:04:35;;;;;;;11.45;6.65;;;;;;;;;;6183338;23;20052;-82
2023/04/18 05:07:19;;;;;;;11.50;6.10;;;;;;;;;;6185276;23;20020;-83
2023/04/18 05:10:04;;;;;;;9.82;6.30;;;;;;;;;;6183935;23;20036;-83
2023/04/18 05:12:49;;;;;;;9.45;5.80;;;;;;;;;;6183299;23;20375;-83
2023/04/18 05:15:34;;;;;;;11.35;5.63;;;;;;;;;;6185173;23;20099;-83
2023/04/18 05:18:19;;;;;;;9.07;5.78;;;;;;;;;;6185172;23;20052;-82
2023/04/18 05:21:04;;;;;;;10.50;6.57;;;;;;;;;;6183564;23;20016;-83
2023/04/18 05:23:49;;;;;;;11.63;6.32;;;;;;;;;;6162369;23;20085;-83
2023/04/18 05:26:34;;;;;;;11.23;6.13;;;;;;;;;;6162919;23;20032;-83
2023/04/18 05:29:19;;;;;;;10.68;6.85;;;;;;;;;;6183920;23;20624;-82
2023/04/18 05:32:05;;;;;;;12.18;6.57;;;;;;;;;;6183210;23;20016;-85
2023/04/18 05:34:50;;;;;;;12.13;7.00;;;;;;;;;;6183143;23;20097;-84
2023/04/18 05:37:35;;;;;;;13.95;7.20;;;;;;;;;;6162865;23;20071;-84
2023/04/18 05:40:20;;;;;;;11.13;7.68;;;;;;;;;;6184911;23;20091;-83
2023/04/18 05:43:04;;;;;;;11.05;6.85;;;;;;;;;;6183145;23;20063;-83
2023/04/18 05:45:51;;;;;;;14.95;7.55;;;;;;;;;;6182811;23;20044;-83
2023/04/18 05:48:35;;;;;;;12.85;6.85;;;;;;;;;;6183666;23;20151;-83
2023/04/18 05:51:19;;;;;;;10.13;7.10;;;;;;;;;;6183449;23;20048;-83
2023/04/18 05:54:04;;;;;;;13.20;7.72;;;;;;;;;;6161926;23;20197;-83
2023/04/18 05:56:48;;;;;;;14.82;7.68;;;;;;;;;;6184249;23;20108;-82
2023/04/18 05:59:33;;;;;;;14.77;8.30;;;;;;;;;;6162468;23;20020;-82
2023/04/18 06:02:17;;;;;;;10.43;7.20;;;;;;;;;;6183576;23;20027;-82
2023/04/18 06:05:02;;;;;;;13.50;7.18;;;;;;;;;;6182833;23;20455;-85
2023/04/18 06:07:47;;;;;;;13.40;8.13;;;;;;;;;;6183033;23;20028;-86
2023/04/18 06:10:32;;;;;;;13.52;7.97;;;;;;;;;;6183516;23;20016;-82
2023/04/18 06:13:17;;;;;;;14.15;8.20;;;;;;;;;;6183348;23;20017;-84
2023/04/18 06:16:02;;;;;;;16.80;8.05;;;;;;;;;;6161791;23;20078;-85
2023/04/18 06:18:46;;;;;;;12.75;8.00;;;;;;;;;;6162539;23;20156;-83
2023/04/18 06:21:31;;;;;;;15.85;8.80;;;;;;;;;;6182768;23;20055;-85
2023/04/18 06:24:15;;;;;;;12.63;7.88;;;;;;;;;;6183033;23;20079;-83
2023/04/18 06:27:00;;;;;;;16.35;8.40;;;;;;;;;;6182146;23;20084;-84
2023/04/18 06:29:45;;;;;;;12.25;7.72;;;;;;;;;;6181633;23;20063;-84
2023/04/18 06:32:29;;;;;;;13.18;7.55;;;;;;;;;;6181670;23;20012;-84
2023/04/18 06:35:14;;;;;;;12.45;8.00;;;;;;;;;;6182116;23;20019;-83
2023/04/18 06:37:58;;;;;;;13.32;7.97;;;;;;;;;;6181008;23;20061;-84
2023/04/18 06:40:43;;;;;;;12.48;7.95;;;;;;;;;;6181395;23;20458;-85
2023/04/18 06:43:27;;;;;;;12.10;8.13;;;;;;;;;;6182787;23;20023;-88
2023/04/18 06:46:12;;;;;;;14.13;7.75;;;;;;;;;;6180920;23;20031;-84
2023/04/18 06:48:56;;;;;;;15.38;7.97;;;;;;;;;;6159896;23;20104;-85
2023/04/18 06:51:41;;;;;;;16.55;7.97;;;;;;;;;;6181475;23;20093;-85
2023/04/18 06:54:25;;;;;;;16.70;8.27;;;;;;;;;;6181536;23;20089;-85
2023/04/18 06:57:10;;;;;;;12.48;7.53;;;;;;;;;;6159992;23;20383;-85
2023/04/18 06:59:55;;;;;;;13.00;7.20;;;;;;;;;;6182483;23;20059;-87
2023/04/18 07:02:40;;;;;;;16.27;8.40;;;;;;;;;;6181420;23;20506;-85
2023/04/18 07:05:24;;;;;;;14.95;8.63;;;;;;;;;;6182117;23;20024;-84
2023/04/18 07:08:09;;;;;;;14.63;7.35;;;;;;;;;;6181912;23;20152;-83
2023/04/18 07:10:53;;;;;;;13.82;8.32;;;;;;;;;;6160198;23;20553;-85
2023/04/18 07:13:38;;;;;;;16.50;8.27;;;;;;;;;;6180926;23;20012;-83
2023/04/18 07:16:23;;;;;;;14.10;7.38;;;;;;;;;;6181348;23;20071;-84
2023/04/18 07:19:07;;;;;;;12.35;7.68;;;;;;;;;;6180766;23;20012;-83
2023/04/18 07:21:52;;;;;;;11.13;6.45;;;;;;;;;;6182567;23;20459;-83
2023/04/18 07:24:38;;;;;;;14.20;7.47;;;;;;;;;;6134043;23;1140019;-83
2023/04/18 07:27:22;;;;;;;10.40;7.25;;;;;;;;;;6183280;23;20093;-83
2023/04/18 07:30:07;;;;;;;13.27;7.43;;;;;;;;;;6181941;23;20020;-84
2023/04/18 07:32:52;;;;;;;14.70;6.65;;;;;;;;;;6182766;23;20020;-84
2023/04/18 07:35:36;;;;;;;9.60;6.93;;;;;;;;;;6183598;23;20336;-84
2023/04/18 07:38:21;;;;;;;12.40;7.07;;;;;;;;;;6182925;23;20104;-84
2023/04/18 07:41:06;;;;;;;11.00;7.50;;;;;;;;;;6183130;23;20035;-85
2023/04/18 07:43:50;;;;;;;13.63;6.70;;;;;;;;;;6161652;23;20053;-83
2023/04/18 07:46:35;;;;;;;14.27;7.35;;;;;;;;;;6182500;23;20056;-83
2023/04/18 07:49:20;;;;;;;10.70;6.63;;;;;;;;;;6183128;23;20024;-82
2023/04/18 07:52:04;;;;;;;12.77;6.80;;;;;;;;;;6181847;23;20016;-83
2023/04/18 07:54:49;;;;;;;14.38;6.53;;;;;;;;;;6182491;23;20040;-83
2023/04/18 07:57:34;;;;;;;10.98;6.32;;;;;;;;;;6161456;23;20052;-83
2023/04/18 08:00:18;;;;;;;15.55;7.60;;;;;;;;;;6181796;23;20072;-83
2023/04/18 08:03:03;;;;;;;10.88;6.63;;;;;;;;;;6182981;23;20522;-85
2023/04/18 08:05:48;;;;;;;11.80;6.88;;;;;;;;;;6182379;23;20039;-84
2023/04/18 08:08:33;;;;;;;11.85;6.50;;;;;;;;;;6182550;23;20392;-83
2023/04/18 08:11:18;;;;;;;13.90;7.50;;;;;;;;;;6182936;23;20070;-83
2023/04/18 08:14:02;;;;;;;9.45;5.95;;;;;;;;;;6182105;23;20035;-86
2023/04/18 08:16:47;;;;;;;12.10;5.78;;;;;;;;;;6182222;23;20028;-83
2023/04/18 08:19:31;;;;;;;9.68;5.82;;;;;;;;;;6182565;23;20051;-80
2023/04/18 08:22:16;;;;;;;9.95;7.05;;;;;;;;;;6162563;23;20075;-83
2023/04/18 08:25:01;;;;;;;9.25;5.88;;;;;;;;;;6182076;23;20028;-83
2023/04/18 08:27:46;;;;;;;9.15;5.60;;;;;;;;;;6183511;23;20020;-83
2023/04/18 08:30:31;;;;;;;12.05;6.40;;;;;;;;;;6183485;23;20011;-81
2023/04/18 08:33:15;;;;;;;10.15;5.97;;;;;;;;;;6182989;23;20095;-81
2023/04/18 08:36:00;;;;;;;13.50;7.22;;;;;;;;;;6182244;23;20360;-81
2023/04/18 08:38:45;;;;;;;7.85;5.47;;;;;;;;;;6181993;23;20020;-81
2023/04/18 08:41:33;;;;;;;7.95;4.78;;;;;;;;;;6182975;23;20063;-81
2023/04/18 08:44:18;;;;;;;8.40;5.47;;;;;;;;;;6181521;23;20016;-81
2023/04/18 08:47:02;;;;;;;9.82;5.75;;;;;;;;;;6161114;23;20132;-81
2023/04/18 08:49:47;;;;;;;8.40;5.30;;;;;;;;;;6182207;23;20147;-81
2023/04/18 08:52:33;;;;;;;8.48;4.82;;;;;;;;;;6182830;23;20047;-81
2023/04/18 08:55:18;;;;;;;8.02;4.78;;;;;;;;;;6181439;23;20023;-80
2023/04/18 08:58:05;;;;;;;9.55;5.72;;;;;;;;;;6161161;23;20020;-80
2023/04/18 09:00:51;;;;;;;11.50;4.90;;;;;;;;;;6182027;23;20072;-81
2023/04/18 09:03:38;;;;;;;9.00;5.65;;;;;;;;;;6183334;23;20020;-82
2023/04/18 09:06:23;;;;;;;9.25;5.18;;;;;;;;;;6182539;23;20015;-83
2023/04/18 09:09:07;;;;;;;8.45;4.68;;;;;;;;;;6183297;23;20064;-84
2023/04/18 09:12:06;;;;;;;7.70;5.43;;;;;;;;;;6182092;23;20032;-83
2023/04/18 09:14:53;;;;;;;9.18;5.57;;;;;;;;;;6183318;23;20063;-83
2023/04/18 09:17:44;;;;;;;8.57;5.22;;;;;;;;;;6183306;23;20020;-84
2023/04/18 09:20:43;;;;;;;12.75;5.30;;;13.10;92.80;;;;;;6182908;23;20020;-83
2023/04/18 09:23:29;;;;;;;7.90;5.53;;;;;;;;;;6181102;23;20068;-82
2023/04/18 09:26:24;;;;;;;12.45;5.32;;;;;;;;;;6182459;23;20020;-83
2023/04/18 09:29:08;;;;;;;10.35;6.05;;;;;;;;;;6181944;23;20141;-83
2023/04/18 09:32:02;;;;;;;8.38;5.35;;;;;;;;;;6183145;23;20031;-84
2023/04/18 09:34:46;;;;;;;8.52;4.70;;;;;;;;;;6183246;23;20024;-83
2023/04/18 09:37:31;;;;;;;7.45;5.35;;;;;;;;;;6160211;23;20020;-81
2023/04/18 09:40:19;;;;;;;7.38;5.68;;;;;;;;;;6182317;23;20450;-84
2023/04/18 09:43:18;;;;;;;7.93;5.30;;;;;;;;;;6181899;23;20324;-83
2023/04/18 09:46:03;;;;;;;7.60;5.50;;;;;;;;;;6183091;23;20071;-84
2023/04/18 09:48:48;;;;;;;7.40;5.30;;;;;;;;;;6183157;23;20039;-84
2023/04/18 09:51:33;;;;;;;10.32;5.90;;;;;;;;;;6184231;23;20787;-84
2023/04/18 09:54:19;;;;;;;7.35;5.10;;;;;;;;;;6182968;23;20095;-84
2023/04/18 09:57:05;;;;;;;8.77;5.78;;;;;;;;;;6184924;23;20071;-84
2023/04/18 09:59:51;;;;;;;7.28;5.55;;;;;;;;;;6183689;23;20012;-84
2023/04/18 10:02:55;;;;;;;6.90;5.07;;;14.00;90.60;;;;;;6184143;23;20015;-84
2023/04/18 10:05:41;;;;;;;9.40;5.75;;;;;;;;;;6184421;23;20019;-83
2023/04/18 10:08:25;;;;;;;9.10;5.80;;;;;;;;;;6161768;23;20071;-84
2023/04/18 10:11:11;;;;;;;9.18;6.03;;;;;;;;;;6184844;23;20016;-84
2023/04/18 10:13:56;;;;;;;11.30;5.88;;;;;;;;;;6183603;23;20340;-83
2023/04/18 10:16:44;;;;;;;9.95;5.32;;;14.30;91.40;;;;;;6184508;23;20443;-83
2023/04/18 10:19:29;;;;;;;8.57;5.45;;;;;;;;;;6182743;23;20016;-83
2023/04/18 10:22:13;;;;;;;8.63;5.78;;;;;;;;;;6184645;23;20016;-83
2023/04/18 10:24:58;;;;;;;7.45;5.53;;;;;;;;;;6183184;23;20032;-83
2023/04/18 10:27:49;;;;;;;7.22;5.35;;;;;;;;;;6162622;23;20067;-84
2023/04/18 10:30:48;;;;;;;10.82;5.60;;;;;;;;;;6182680;23;20012;-83
2023/04/18 10:33:33;;;;;;;9.68;6.10;;;;;;;;;;6183760;23;20336;-83
2023/04/18 10:36:21;;;;;;;10.75;5.80;;;;;;;;;;6184439;23;20067;-83
2023/04/18 10:39:22;;;;;;;12.10;6.53;;;14.50;87.30;;;;;;6184626;23;20470;-84
2023/04/18 10:42:07;;;;;;;7.78;5.60;;;;;;;;;;6184463;23;20036;-84
2023/04/18 10:45:29;;;;;;;10.25;6.32;;;;;;;;;;6183243;23;20020;-83
2023/04/18 10:48:31;;;;;;;8.07;5.90;;;;;;;;;;6072758;23;20077;-84
2023/04/18 10:51:22;;;;;;;12.55;7.28;;;;;;;;;;6183038;23;20051;-84
2023/04/18 10:54:10;;;;;;;10.15;5.97;;;;;;;;;;6183049;23;20069;-84
2023/04/18 10:56:56;;;;;;;10.18;6.63;;;;;;;;;;6184546;23;20039;-83
2023/04/18 10:59:41;;;;;;;10.32;6.47;;;;;;;;;;6182355;23;20156;-83
2023/04/18 11:02:31;;;;;;;9.15;6.20;;;;;;;;;;6183229;23;20019;-83
2023/04/18 11:05:19;;;;;;;12.95;6.80;;;;;;;;;;6184192;23;20052;-82
2023/04/18 11:08:05;;;;;;;12.02;7.45;;;;;;;;;;6183052;23;20016;-83
2023/04/18 11:10:56;;;;;;;14.10;6.03;;;;;;;;;;6183019;23;20016;-83
2023/04/18 11:13:55;;;;;;;13.23;6.43;;;;;;;;;;6182386;23;20035;-83
2023/04/18 11:16:40;;;;;;;10.35;6.20;;;;;;;;;;6161380;23;20036;-83
2023/04/18 11:19:25;;;;;;;9.77;6.32;;;;;;;;;;6161511;23;20015;-86
2023/04/18 11:22:10;;;;;;;10.07;6.15;;;;;;;;;;6184032;23;20015;-84
2023/04/18 11:24:58;;;;;;;11.57;6.75;;;;;;;;;;6183835;23;20024;-83
2023/04/18 11:27:44;;;;;;;9.77;6.55;;;;;;;;;;6182235;23;20510;-83
2023/04/18 11:30:36;;;;;;;11.00;6.18;;;;;;;;;;6183348;23;20047;-84
2023/04/18 11:33:23;;;;;;;13.05;6.40;;;;;;;;;;6183841;23;20016;-83
2023/04/18 11:36:07;;;;;;;9.10;6.55;;;;;;;;;;6162122;23;20024;-83
2023/04/18 11:38:52;;;;;;;10.65;6.38;;;;;;;;;;6183844;23;20028;-83
2023/04/18 11:41:36;;;;;;;8.73;6.43;;;;;;;;;;6182006;23;20047;-84
2023/04/18 11:44:25;;;;;;;9.00;5.97;;;;;;;;;;6182558;23;20328;-84
2023/04/18 11:47:26;;;;;;;12.80;6.97;;;;;;;;;;6182456;23;20040;-84
2023/04/18 11:50:11;;;;;;;11.05;6.88;;;;;;;;;;6182583;23;20024;-84
2023/04/18 11:52:56;;;;;;;9.57;7.05;;;;;;;;;;6182562;23;20144;-84
2023/04/18 11:55:41;;;;;;;10.85;6.47;;;;;;;;;;6183166;23;20518;-86
2023/04/18 11:58:30;;;;;;;9.13;6.05;;;;;;;;;;6182568;23;20020;-83
2023/04/18 12:01:16;;;;;;;8.82;6.22;;;;;;;;;;6182394;23;20020;-82
2023/04/18 12:04:01;;;;;;;9.20;6.47;;;;;;;;;;6183708;23;20012;-81
2023/04/18 12:06:46;;;;;;;8.40;6.20;;;;;;;;;;6181740;23;20020;-81
2023/04/18 12:09:30;;;;;;;10.57;6.70;;;;;;;;;;6183028;23;20158;-84
2023/04/18 12:12:18;;;;;;;11.75;7.45;;;;;;;;;;6183484;23;20448;-82
2023/04/18 12:15:04;;;;;;;8.82;6.70;;;;;;;;;;6183473;23;20313;-81
2023/04/18 12:17:52;;;;;;;8.70;6.22;;;;;;;;;;6182827;23;20780;-81
2023/04/18 12:20:38;;;;;;;10.98;6.72;;;;;;;;;;6181679;23;20020;-81
2023/04/18 12:23:34;;;;;;;10.20;6.93;;;;;;;;;;6183070;23;20071;-82
2023/04/18 12:26:21;;;;;;;9.80;6.47;;;;;;;;;;6182093;23;20016;-81
2023/04/18 12:29:06;;;;;;;10.32;6.55;;;;;;;;;;6182290;23;20095;-82
2023/04/18 12:31:50;;;;;;;10.65;7.05;;;;;;;;;;6160506;23;20065;-81
2023/04/18 12:34:35;;;;;;;9.30;6.75;;;;;;;;;;6182815;23;20039;-82
2023/04/18 12:37:24;;;;;;;8.45;6.30;;;;;;;;;;6183359;23;20526;-82
2023/04/18 12:40:09;;;;;;;8.90;6.50;;;;;;;;;;6161815;23;20016;-81
2023/04/18 12:42:54;;;;;;;8.07;5.65;;;;;;;;;;6182692;23;20015;-81
2023/04/18 12:45:39;;;;;;;8.40;6.20;;;;;;;;;;6160252;23;20019;-81
2023/04/18 12:48:26;;;;;;;8.43;5.18;;;;;;;;;;6183396;23;20463;-81
2023/04/18 12:51:11;;;;;;;6.75;4.80;;;;;;;;;;6183508;23;20079;-81
2023/04/18 12:53:56;;;;;;;6.80;4.65;;;;;;;;;;6182794;23;20051;-80
2023/04/18 12:56:40;;;;;;;8.93;4.88;;;;;;;;;;6181595;23;20489;-81
2023/04/18 12:59:25;;;;;;;7.25;5.03;;;;;;;;;;6181963;23;20052;-81
2023/04/18 13:02:09;;;;;;;6.68;4.80;;;;;;;;;;6183325;23;20044;-81
2023/04/18 13:04:55;;;;;;;6.28;4.28;;;;;;;;;;6160410;23;20459;-81
2023/04/18 13:07:41;;;;;;;9.45;5.28;;;;;;;;;;6160229;23;20071;-82
2023/04/18 13:10:25;;;;;;;9.38;4.90;;;;;;;;;;6182000;23;20063;-80
2023/04/18 13:13:10;;;;;;;5.85;4.20;;;;;;;;;;6183138;23;20016;-82
2023/04/18 13:15:55;;;;;;;7.18;4.95;;;;;;;;;;6181392;23;20064;-82
2023/04/18 13:18:39;;;;;;;9.38;4.43;;;;;;;;;;6182556;23;20081;-83
2023/04/18 13:21:24;;;;;;;5.85;4.47;;;;;;;;;;6182998;23;20047;-82
2023/04/18 13:24:09;;;;;;;8.90;4.32;;;;;;;;;;6182232;23;20111;-82
2023/04/18 13:26:54;;;;;;;6.88;3.60;;;;;;;;;;6183098;23;20028;-81
2023/04/18 13:29:40;;;;;;;5.60;3.17;;;;;;;;;;6184872;23;20060;-84
2023/04/18 13:32:25;;;;;;;4.75;3.30;;;;;;;;;;6185119;23;20084;-82
2023/04/18 13:35:10;;;;;;;6.88;3.78;;;;;;;;;;6185034;23;20051;-81
2023/04/18 13:37:55;;;;;;;6.90;3.40;;;;;;;;;;6184492;23;20494;-83
2023/04/18 13:40:39;;;;;;;7.03;3.58;;;;;;;;;;6183600;23;20344;-85
2023/04/18 13:43:24;;;;;;;6.20;3.55;;;;;;;;;;6183595;23;20148;-81
2023/04/18 13:46:08;;;;;;;5.22;3.90;;;;;;;;;;6183600;23;20067;-81
2023/04/18 13:48:53;;;;;;;5.72;3.70;;;;;;;;;;6182947;23;20032;-81
2023/04/18 13:51:37;;;;;;;5.78;3.58;;;;;;;;;;6183564;23;20056;-81
2023/04/18 13:54:23;;;;;;;6.75;4.50;;;;;;;;;;6183642;23;20104;-82
2023/04/18 13:57:10;;;;;;;5.80;3.80;;;;;;;;;;6184674;23;20438;-81
2023/04/18 13:59:54;;;;;;;4.68;3.53;;;;;;;;;;6182925;23;20466;-80
2023/04/18 14:02:39;;;;;;;6.28;4.57;;;;;;;;;;6184655;23;20056;-81
2023/04/18 14:05:24;;;;;;;5.95;3.80;;;;;;;;;;6183434;23;20344;-81
2023/04/18 14:08:09;;;;;;;5.47;3.63;;;;;;;;;;6184608;23;20067;-81
2023/04/18 14:10:53;;;;;;;9.90;3.72;;;;;;;;;;6184163;23;20328;-82
2023/04/18 14:13:38;;;;;;;6.85;3.83;;;;;;;;;;6183553;23;20024;-81
2023/04/18 14:16:23;;;;;;;6.75;4.40;;;;;;;;;;6183389;23;20491;-81
2023/04/18 14:19:07;;;;;;;6.30;4.07;;;;;;;;;;6182816;23;20024;-81
2023/04/18 14:21:51;;;;;;;6.45;4.22;;;;;;;;;;6183896;23;20095;-82
2023/04/18 14:24:36;;;;;;;9.20;4.68;;;;;;;;;;6184823;23;20024;-84
2023/04/18 14:27:20;;;;;;;9.80;4.72;;;;;;;;;;6162234;23;20467;-84
2023/04/18 14:30:07;;;;;;;6.40;4.13;;;;;;;;;;6182633;23;20021;-83
2023/04/18 14:32:52;;;;;;;9.55;4.60;;;;;;;;;;6183919;23;20028;-83
2023/04/18 14:35:36;;;;;;;6.00;4.30;;;;;;;;;;6162177;23;20072;-82
2023/04/18 14:38:21;;;;;;;5.55;4.60;;;;;;;;;;6183146;23;20447;-83
2023/04/18 14:41:05;;;;;;;7.35;4.90;;;;;;;;;;6183819;23;20909;-82
2023/04/18 14:43:50;;;;;;;8.10;4.45;;;;;;;;;;6182501;23;20104;-84
2023/04/18 14:46:34;;;;;;;7.88;4.80;;;;;;;;;;6182995;23;20023;-82
2023/04/18 14:49:19;;;;;;;6.55;4.78;;;;;;;;;;6179899;23;20044;-82
2023/04/18 14:52:03;;;;;;;6.90;3.88;;;;;;;;;;6180899;23;20019;-82
2023/04/18 14:54:48;;;;;;;8.00;4.25;;;;;;;;;;6161412;23;20024;-86
2023/04/18 14:57:34;;;;;;;7.97;5.13;;;;;;;;;;6182371;23;20016;-81
2023/04/18 15:00:19;;;;;;;6.95;4.70;;;;;;;;;;6180562;23;20043;-84
2023/04/18 15:03:04;;;;;;;9.77;5.43;;;;;;;;;;6182212;23;20089;-82
2023/04/18 15:05:49;;;;;;;7.60;4.63;;;;;;;;;;6183279;23;20035;-82
2023/04/18 15:08:33;;;;;;;8.30;5.75;;;;;;;;;;6182542;23;20075;-79
2023/04/18 15:11:18;;;;;;;9.73;5.88;;;;;;;;;;6183434;23;20016;-81
2023/04/18 15:14:02;;;;;;;7.18;5.43;;;;;;;;;;6183215;23;20036;-81
2023/04/18 15:16:50;;;;;;;7.90;5.18;;;;;;;;;;6182748;23;20031;-83
2023/04/18 15:19:34;;;;;;;7.07;5.30;;;;;;;;;;6182587;23;20063;-83
2023/04/18 15:22:19;;;;;;;7.70;5.45;;;;;;;;;;6183904;23;20448;-86
2023/04/18 15:25:04;;;;;;;9.93;5.03;;;;;;;;;;6183290;23;20028;-83
2023/04/18 15:27:49;;;;;;;8.52;6.13;;;;;;;;;;6182521;23;20399;-83
2023/04/18 15:30:33;;;;;;;8.10;5.32;;;;;;;;;;6186188;23;20331;-82
2023/04/18 15:33:19;;;;;;;10.90;6.90;;;;;;;;;;6190180;23;20032;-83
2023/04/18 15:36:03;;;;;;;9.82;6.22;;;;;;;;;;6187424;23;20020;-85
2023/04/18 15:38:51;;;;;;;11.20;5.80;;;;;;;;;;6161199;23;20136;-82
2023/04/18 15:41:36;;;;;;;10.13;6.43;;;;;;;;;;6183592;23;20020;-82
2023/04/18 15:44:25;;;;;;;9.63;5.43;;;;;;;;;;6182401;23;20336;-83
2023/04/18 15:47:10;;;;;;;9.65;6.32;;;;;;;;;;6180806;23;20024;-83
2023/04/18 15:49:55;;;;;;;9.43;6.25;;;;;;;;;;6181724;23;20096;-88
2023/04/18 15:52:40;;;;;;;9.38;5.90;;;;;;;;;;6183487;23;20060;-83
2023/04/18 15:55:24;;;;;;;11.60;5.97;;;;;;;;;;6182488;23;20020;-83
2023/04/18 15:58:09;;;;;;;9.32;5.93;;;;;;;;;;6183068;23;20012;-83
2023/04/18 16:00:54;;;;;;;9.85;5.72;;;;;;;;;;6182357;23;20376;-87
2023/04/18 16:03:41;;;;;;;8.05;5.68;;;;;;;;;;6161456;23;20093;-84
2023/04/18 16:06:26;;;;;;;8.43;5.93;;;;;;;;;;6182262;23;20480;-84
2023/04/18 16:09:11;;;;;;;16.27;6.70;;;;;;;;;;6181518;23;20035;-86
2023/04/18 16:11:56;;;;;;;6.88;5.53;;;;;;;;;;6182358;23;20015;-86
2023/04/18 16:14:41;;;;;;;12.32;6.20;;;;;;;;;;6182284;23;20048;-86
2023/04/18 16:17:25;;;;;;;8.75;5.93;;;;;;;;;;6182254;23;20016;-83
2023/04/18 16:20:10;;;;;;;8.07;5.40;;;;;;;;;;6160339;23;20096;-83
2023/04/18 16:22:57;;;;;;;9.52;5.95;;;;;;;;;;6183201;23;20106;-84